Hlavní strana
METAR-TAF:

METAR-TAF

Letiště :

Utti, Finsko

zeměpisná šířka: 60-54N, zeměpisná délka: 026-56E, výška: 100 m

Aktuální stav počasí

Zpráva byla vytvořena před 38 minutami, v 18:50 UTC
Jihovýchodní vítr 9 kt
Teplota -2°C
Vlhkost vzduchu 93%
Tlak 992 hPa
Viditelnost: 1800 m
Zataženo ve výšce 100 ft
slabé sněhové přeháňky

METAR: EFUT 221850Z AUTO 14009KT 1800 -SHSN OVC001 M02/M03 Q0992 REFZDZ

Čas: 21:28 (19:28 UTC)

Předpověď počasí

Zpráva byla vytvořena před 10 hodinami a 8 minutami, v 09:20 UTC
Předpověď platná od 22 v 09 UTC do 22 v 13 UTC
Východojihovýchodní vítr 9 kt
Viditelnost: 3000 m
Zataženo ve výšce 300 ft
kouřmo
Dočasný
od 22 v 09 UTC do 22 v 11 UTC
Viditelnost: 1200 m
Zataženo ve výšce 100 ft
(slabý) mrznoucí, mrholení
Pravděpodobnost 30% :
Dočasný
od 22 v 11 UTC do 22 v 13 UTC
Zataženo ve výšce 500 ft

TAF: EFUT 220920Z 2209/2213 12009KT 3000 BR OVC003 TEMPO 2209/2211 1200 -FZDZ OVC001 PROB30 TEMPO 2211/2213 OVC005

Stav a předpovědi počasí z více než 4 000 letišť (zprávy METAR a TAF).

Červené a žluté tečky na mapě představují dostupné meteorologické stanice.

Když kurzor umístíte na tečku, zobrazí se název stanice.

Pak kliknutím zobrazíte stav a předpověď počasí.

Chcete-li změnit mapu, kliknutím na zelené tlačítko se znaménkem +mapu přiblížíte, kliknutím na zelené tlačítko se znaménkem – mapu oddálíte a kliknutím na zelené šipky přejdete na sousední mapy.


METAR-TAF: